sensor_id;sensor_type;location;lat;lon;timestamp;P1;durP1;ratioP1;P2;durP2;ratioP2
20454;SDS011;10386;54.314;10.022;2023-03-23T00:01:20;24.17;;;13.83;;
20454;SDS011;10386;54.314;10.022;2023-03-23T00:03:48;27.10;;;14.40;;
20454;SDS011;10386;54.314;10.022;2023-03-23T00:06:16;25.63;;;14.73;;
20454;SDS011;10386;54.314;10.022;2023-03-23T00:08:46;27.63;;;14.77;;
20454;SDS011;10386;54.314;10.022;2023-03-23T00:11:15;22.00;;;13.70;;
20454;SDS011;10386;54.314;10.022;2023-03-23T00:13:46;25.20;;;14.80;;
20454;SDS011;10386;54.314;10.022;2023-03-23T00:16:17;28.83;;;14.43;;
20454;SDS011;10386;54.314;10.022;2023-03-23T00:18:54;27.43;;;14.80;;
20454;SDS011;10386;54.314;10.022;2023-03-23T00:21:24;25.47;;;14.77;;
20454;SDS011;10386;54.314;10.022;2023-03-23T00:26:27;29.93;;;14.60;;
20454;SDS011;10386;54.314;10.022;2023-03-23T00:28:55;26.70;;;15.13;;
20454;SDS011;10386;54.314;10.022;2023-03-23T00:31:21;24.97;;;14.70;;
20454;SDS011;10386;54.314;10.022;2023-03-23T00:33:47;27.37;;;14.83;;
20454;SDS011;10386;54.314;10.022;2023-03-23T00:36:13;27.03;;;15.10;;
20454;SDS011;10386;54.314;10.022;2023-03-23T00:38:40;27.23;;;15.07;;
20454;SDS011;10386;54.314;10.022;2023-03-23T00:41:10;26.97;;;14.63;;
20454;SDS011;10386;54.314;10.022;2023-03-23T00:43:36;25.67;;;13.57;;
20454;SDS011;10386;54.314;10.022;2023-03-23T00:46:04;28.33;;;14.53;;
20454;SDS011;10386;54.314;10.022;2023-03-23T00:48:35;23.13;;;13.47;;
20454;SDS011;10386;54.314;10.022;2023-03-23T00:51:06;25.40;;;13.30;;
20454;SDS011;10386;54.314;10.022;2023-03-23T00:53:37;26.80;;;14.23;;
20454;SDS011;10386;54.314;10.022;2023-03-23T00:56:04;24.30;;;14.10;;
20454;SDS011;10386;54.314;10.022;2023-03-23T00:58:31;22.30;;;13.00;;
20454;SDS011;10386;54.314;10.022;2023-03-23T01:00:57;23.00;;;12.50;;
20454;SDS011;10386;54.314;10.022;2023-03-23T01:03:22;23.47;;;12.80;;
20454;SDS011;10386;54.314;10.022;2023-03-23T01:05:51;21.47;;;12.60;;
20454;SDS011;10386;54.314;10.022;2023-03-23T01:08:18;21.17;;;12.67;;
20454;SDS011;10386;54.314;10.022;2023-03-23T01:10:44;23.13;;;12.60;;
20454;SDS011;10386;54.314;10.022;2023-03-23T01:13:11;22.30;;;12.77;;
20454;SDS011;10386;54.314;10.022;2023-03-23T01:15:37;18.00;;;11.00;;
20454;SDS011;10386;54.314;10.022;2023-03-23T01:18:03;25.57;;;12.73;;
20454;SDS011;10386;54.314;10.022;2023-03-23T01:20:29;20.33;;;12.00;;
20454;SDS011;10386;54.314;10.022;2023-03-23T01:22:57;24.50;;;12.33;;
20454;SDS011;10386;54.314;10.022;2023-03-23T01:25:29;21.27;;;13.17;;
20454;SDS011;10386;54.314;10.022;2023-03-23T01:27:57;20.43;;;11.13;;
20454;SDS011;10386;54.314;10.022;2023-03-23T01:30:23;18.83;;;10.60;;
20454;SDS011;10386;54.314;10.022;2023-03-23T01:32:50;18.17;;;10.20;;
20454;SDS011;10386;54.314;10.022;2023-03-23T01:35:16;20.40;;;10.63;;
20454;SDS011;10386;54.314;10.022;2023-03-23T01:37:42;16.07;;;8.90;;
20454;SDS011;10386;54.314;10.022;2023-03-23T01:40:08;15.70;;;7.90;;
20454;SDS011;10386;54.314;10.022;2023-03-23T01:42:35;12.97;;;8.33;;
20454;SDS011;10386;54.314;10.022;2023-03-23T01:50:23;11.03;;;6.80;;
20454;SDS011;10386;54.314;10.022;2023-03-23T01:52:53;12.93;;;6.57;;
20454;SDS011;10386;54.314;10.022;2023-03-23T01:55:22;8.80;;;5.50;;
20454;SDS011;10386;54.314;10.022;2023-03-23T01:57:51;9.40;;;5.63;;
20454;SDS011;10386;54.314;10.022;2023-03-23T02:00:18;10.20;;;6.33;;
20454;SDS011;10386;54.314;10.022;2023-03-23T02:02:48;9.90;;;6.17;;
20454;SDS011;10386;54.314;10.022;2023-03-23T02:05:18;11.00;;;5.20;;
20454;SDS011;10386;54.314;10.022;2023-03-23T02:07:49;8.60;;;5.50;;
20454;SDS011;10386;54.314;10.022;2023-03-23T02:10:16;9.93;;;6.00;;
20454;SDS011;10386;54.314;10.022;2023-03-23T02:12:42;8.70;;;6.40;;
20454;SDS011;10386;54.314;10.022;2023-03-23T02:15:08;13.13;;;6.00;;
20454;SDS011;10386;54.314;10.022;2023-03-23T02:17:46;9.77;;;5.87;;
20454;SDS011;10386;54.314;10.022;2023-03-23T02:20:29;11.13;;;6.00;;
20454;SDS011;10386;54.314;10.022;2023-03-23T02:34:35;11.77;;;7.53;;
20454;SDS011;10386;54.314;10.022;2023-03-23T02:37:11;15.07;;;7.57;;
20454;SDS011;10386;54.314;10.022;2023-03-23T02:39:47;13.03;;;8.07;;
20454;SDS011;10386;54.314;10.022;2023-03-23T02:42:18;10.83;;;7.27;;
20454;SDS011;10386;54.314;10.022;2023-03-23T02:44:48;14.10;;;8.37;;
20454;SDS011;10386;54.314;10.022;2023-03-23T02:47:16;14.73;;;8.00;;
20454;SDS011;10386;54.314;10.022;2023-03-23T02:49:49;14.47;;;7.37;;
20454;SDS011;10386;54.314;10.022;2023-03-23T02:52:19;14.77;;;8.70;;
20454;SDS011;10386;54.314;10.022;2023-03-23T02:54:49;15.00;;;8.33;;
20454;SDS011;10386;54.314;10.022;2023-03-23T02:57:18;13.03;;;8.20;;
20454;SDS011;10386;54.314;10.022;2023-03-23T02:59:46;14.43;;;8.47;;
20454;SDS011;10386;54.314;10.022;2023-03-23T03:04:52;15.67;;;8.97;;
20454;SDS011;10386;54.314;10.022;2023-03-23T03:10:00;13.07;;;7.60;;
20454;SDS011;10386;54.314;10.022;2023-03-23T03:18:00;12.13;;;7.17;;
20454;SDS011;10386;54.314;10.022;2023-03-23T03:20:32;11.27;;;6.43;;
20454;SDS011;10386;54.314;10.022;2023-03-23T03:23:02;10.03;;;6.10;;
20454;SDS011;10386;54.314;10.022;2023-03-23T03:25:32;15.00;;;7.57;;
20454;SDS011;10386;54.314;10.022;2023-03-23T03:27:59;13.13;;;7.40;;
20454;SDS011;10386;54.314;10.022;2023-03-23T03:30:26;12.00;;;6.30;;
20454;SDS011;10386;54.314;10.022;2023-03-23T03:32:56;10.60;;;5.47;;
20454;SDS011;10386;54.314;10.022;2023-03-23T03:35:25;6.80;;;4.63;;
20454;SDS011;10386;54.314;10.022;2023-03-23T03:37:51;7.03;;;4.77;;
20454;SDS011;10386;54.314;10.022;2023-03-23T03:40:19;7.80;;;4.97;;
20454;SDS011;10386;54.314;10.022;2023-03-23T03:42:47;6.40;;;4.40;;
20454;SDS011;10386;54.314;10.022;2023-03-23T03:45:14;11.27;;;5.33;;
20454;SDS011;10386;54.314;10.022;2023-03-23T03:47:42;7.57;;;4.73;;
20454;SDS011;10386;54.314;10.022;2023-03-23T03:50:08;8.27;;;4.70;;
20454;SDS011;10386;54.314;10.022;2023-03-23T03:52:34;7.87;;;4.10;;
20454;SDS011;10386;54.314;10.022;2023-03-23T03:55:00;5.67;;;4.00;;
20454;SDS011;10386;54.314;10.022;2023-03-23T03:57:26;8.00;;;3.93;;
20454;SDS011;10386;54.314;10.022;2023-03-23T03:59:51;8.13;;;4.10;;
20454;SDS011;10386;54.314;10.022;2023-03-23T04:02:17;7.43;;;3.73;;
20454;SDS011;10386;54.314;10.022;2023-03-23T04:04:48;7.00;;;4.03;;
20454;SDS011;10386;54.314;10.022;2023-03-23T04:07:15;6.37;;;3.63;;
20454;SDS011;10386;54.314;10.022;2023-03-23T04:09:42;6.10;;;3.70;;
20454;SDS011;10386;54.314;10.022;2023-03-23T04:12:12;6.03;;;3.53;;
20454;SDS011;10386;54.314;10.022;2023-03-23T04:14:38;6.00;;;3.53;;
20454;SDS011;10386;54.314;10.022;2023-03-23T04:17:04;4.87;;;3.00;;
20454;SDS011;10386;54.314;10.022;2023-03-23T04:19:29;5.40;;;2.80;;
20454;SDS011;10386;54.314;10.022;2023-03-23T04:21:58;2.50;;;2.30;;
20454;SDS011;10386;54.314;10.022;2023-03-23T04:24:24;4.23;;;2.50;;
20454;SDS011;10386;54.314;10.022;2023-03-23T04:26:49;6.03;;;2.97;;
20454;SDS011;10386;54.314;10.022;2023-03-23T04:29:19;7.03;;;3.20;;
20454;SDS011;10386;54.314;10.022;2023-03-23T04:31:45;4.90;;;3.30;;
20454;SDS011;10386;54.314;10.022;2023-03-23T04:34:11;4.23;;;3.07;;
20454;SDS011;10386;54.314;10.022;2023-03-23T04:36:40;4.20;;;2.77;;
20454;SDS011;10386;54.314;10.022;2023-03-23T04:39:06;4.57;;;2.80;;
20454;SDS011;10386;54.314;10.022;2023-03-23T04:41:35;3.97;;;2.87;;
20454;SDS011;10386;54.314;10.022;2023-03-23T04:44:02;6.40;;;2.90;;
20454;SDS011;10386;54.314;10.022;2023-03-23T04:46:28;3.77;;;2.80;;
20454;SDS011;10386;54.314;10.022;2023-03-23T04:48:55;4.97;;;2.77;;
20454;SDS011;10386;54.314;10.022;2023-03-23T04:51:24;4.50;;;2.40;;
20454;SDS011;10386;54.314;10.022;2023-03-23T04:53:51;3.87;;;2.47;;
20454;SDS011;10386;54.314;10.022;2023-03-23T04:56:17;3.37;;;1.77;;
20454;SDS011;10386;54.314;10.022;2023-03-23T04:58:43;2.37;;;1.60;;
20454;SDS011;10386;54.314;10.022;2023-03-23T05:01:10;3.27;;;1.70;;
20454;SDS011;10386;54.314;10.022;2023-03-23T05:03:39;2.93;;;1.70;;
20454;SDS011;10386;54.314;10.022;2023-03-23T05:06:06;3.57;;;1.80;;
20454;SDS011;10386;54.314;10.022;2023-03-23T05:08:32;3.63;;;1.87;;
20454;SDS011;10386;54.314;10.022;2023-03-23T05:10:58;2.00;;;1.57;;
20454;SDS011;10386;54.314;10.022;2023-03-23T05:13:25;3.70;;;1.70;;
20454;SDS011;10386;54.314;10.022;2023-03-23T05:15:52;2.87;;;2.00;;
20454;SDS011;10386;54.314;10.022;2023-03-23T05:18:18;2.07;;;1.90;;
20454;SDS011;10386;54.314;10.022;2023-03-23T05:20:45;2.50;;;2.00;;
20454;SDS011;10386;54.314;10.022;2023-03-23T05:23:12;5.27;;;2.70;;
20454;SDS011;10386;54.314;10.022;2023-03-23T05:25:38;4.73;;;3.30;;
20454;SDS011;10386;54.314;10.022;2023-03-23T05:28:07;5.23;;;3.90;;
20454;SDS011;10386;54.314;10.022;2023-03-23T05:30:33;6.70;;;4.30;;
20454;SDS011;10386;54.314;10.022;2023-03-23T05:33:00;8.53;;;5.27;;
20454;SDS011;10386;54.314;10.022;2023-03-23T05:35:26;10.17;;;6.77;;
20454;SDS011;10386;54.314;10.022;2023-03-23T05:37:52;13.20;;;7.97;;
20454;SDS011;10386;54.314;10.022;2023-03-23T05:40:19;13.33;;;8.37;;
20454;SDS011;10386;54.314;10.022;2023-03-23T05:42:45;14.43;;;9.20;;
20454;SDS011;10386;54.314;10.022;2023-03-23T05:45:11;15.63;;;9.80;;
20454;SDS011;10386;54.314;10.022;2023-03-23T05:47:40;16.80;;;10.97;;
20454;SDS011;10386;54.314;10.022;2023-03-23T05:50:07;21.97;;;11.73;;
20454;SDS011;10386;54.314;10.022;2023-03-23T05:52:34;22.30;;;12.10;;
20454;SDS011;10386;54.314;10.022;2023-03-23T05:55:01;23.90;;;14.00;;
20454;SDS011;10386;54.314;10.022;2023-03-23T05:57:28;23.30;;;14.03;;
20454;SDS011;10386;54.314;10.022;2023-03-23T05:59:55;25.70;;;15.27;;
20454;SDS011;10386;54.314;10.022;2023-03-23T06:02:23;28.20;;;15.63;;
20454;SDS011;10386;54.314;10.022;2023-03-23T06:04:50;31.87;;;17.53;;
20454;SDS011;10386;54.314;10.022;2023-03-23T06:07:22;31.00;;;16.50;;
20454;SDS011;10386;54.314;10.022;2023-03-23T06:09:51;27.47;;;16.90;;
20454;SDS011;10386;54.314;10.022;2023-03-23T06:12:17;26.50;;;16.20;;
20454;SDS011;10386;54.314;10.022;2023-03-23T06:14:45;50.87;;;17.07;;
20454;SDS011;10386;54.314;10.022;2023-03-23T06:17:13;36.07;;;17.13;;
20454;SDS011;10386;54.314;10.022;2023-03-23T06:19:40;31.33;;;16.47;;
20454;SDS011;10386;54.314;10.022;2023-03-23T06:22:05;29.63;;;15.60;;
20454;SDS011;10386;54.314;10.022;2023-03-23T06:24:31;29.07;;;15.93;;
20454;SDS011;10386;54.314;10.022;2023-03-23T06:26:58;26.20;;;16.43;;
20454;SDS011;10386;54.314;10.022;2023-03-23T06:29:24;29.13;;;16.23;;
20454;SDS011;10386;54.314;10.022;2023-03-23T06:31:52;28.60;;;15.67;;
20454;SDS011;10386;54.314;10.022;2023-03-23T06:34:22;27.67;;;14.83;;
20454;SDS011;10386;54.314;10.022;2023-03-23T06:36:48;27.50;;;14.83;;
20454;SDS011;10386;54.314;10.022;2023-03-23T06:39:14;27.13;;;15.77;;
20454;SDS011;10386;54.314;10.022;2023-03-23T06:41:39;23.20;;;15.07;;
20454;SDS011;10386;54.314;10.022;2023-03-23T06:44:05;27.17;;;14.93;;
20454;SDS011;10386;54.314;10.022;2023-03-23T06:46:33;25.87;;;14.57;;
20454;SDS011;10386;54.314;10.022;2023-03-23T06:48:59;21.90;;;14.10;;
20454;SDS011;10386;54.314;10.022;2023-03-23T06:51:25;22.67;;;14.37;;
20454;SDS011;10386;54.314;10.022;2023-03-23T06:53:50;21.97;;;13.70;;
20454;SDS011;10386;54.314;10.022;2023-03-23T06:56:16;26.53;;;13.57;;
20454;SDS011;10386;54.314;10.022;2023-03-23T06:58:42;23.53;;;14.50;;
20454;SDS011;10386;54.314;10.022;2023-03-23T07:01:08;21.73;;;13.67;;
20454;SDS011;10386;54.314;10.022;2023-03-23T07:03:34;20.00;;;12.23;;
20454;SDS011;10386;54.314;10.022;2023-03-23T07:06:00;24.83;;;13.23;;
20454;SDS011;10386;54.314;10.022;2023-03-23T07:08:26;22.07;;;12.90;;
20454;SDS011;10386;54.314;10.022;2023-03-23T07:10:53;18.87;;;11.73;;
20454;SDS011;10386;54.314;10.022;2023-03-23T07:13:20;17.47;;;9.70;;
20454;SDS011;10386;54.314;10.022;2023-03-23T07:15:46;17.53;;;10.10;;
20454;SDS011;10386;54.314;10.022;2023-03-23T07:18:13;16.83;;;9.40;;
20454;SDS011;10386;54.314;10.022;2023-03-23T07:20:39;18.93;;;9.73;;
20454;SDS011;10386;54.314;10.022;2023-03-23T07:23:04;17.43;;;8.87;;
20454;SDS011;10386;54.314;10.022;2023-03-23T07:25:34;14.07;;;9.33;;
20454;SDS011;10386;54.314;10.022;2023-03-23T07:28:01;17.53;;;9.83;;
20454;SDS011;10386;54.314;10.022;2023-03-23T07:30:28;19.67;;;10.50;;
20454;SDS011;10386;54.314;10.022;2023-03-23T07:32:55;20.47;;;10.63;;
20454;SDS011;10386;54.314;10.022;2023-03-23T07:35:21;16.37;;;10.50;;
20454;SDS011;10386;54.314;10.022;2023-03-23T07:37:48;17.37;;;9.30;;
20454;SDS011;10386;54.314;10.022;2023-03-23T07:40:14;13.50;;;7.77;;
20454;SDS011;10386;54.314;10.022;2023-03-23T07:42:44;17.00;;;9.03;;
20454;SDS011;10386;54.314;10.022;2023-03-23T07:45:12;13.77;;;8.27;;
20454;SDS011;10386;54.314;10.022;2023-03-23T07:47:39;9.50;;;5.97;;
20454;SDS011;10386;54.314;10.022;2023-03-23T07:50:05;11.97;;;6.10;;
20454;SDS011;10386;54.314;10.022;2023-03-23T07:52:32;9.47;;;5.50;;
20454;SDS011;10386;54.314;10.022;2023-03-23T07:54:59;9.17;;;5.13;;
20454;SDS011;10386;54.314;10.022;2023-03-23T07:57:27;11.23;;;4.90;;
20454;SDS011;10386;54.314;10.022;2023-03-23T07:59:53;6.87;;;4.70;;
20454;SDS011;10386;54.314;10.022;2023-03-23T08:02:18;10.53;;;4.60;;
20454;SDS011;10386;54.314;10.022;2023-03-23T08:04:44;9.33;;;4.43;;
20454;SDS011;10386;54.314;10.022;2023-03-23T08:07:10;9.30;;;4.10;;
20454;SDS011;10386;54.314;10.022;2023-03-23T08:09:38;9.70;;;4.13;;
20454;SDS011;10386;54.314;10.022;2023-03-23T08:12:04;14.40;;;4.23;;
20454;SDS011;10386;54.314;10.022;2023-03-23T08:14:30;7.00;;;3.60;;
20454;SDS011;10386;54.314;10.022;2023-03-23T08:16:56;13.63;;;3.37;;
20454;SDS011;10386;54.314;10.022;2023-03-23T08:19:22;6.27;;;3.60;;
20454;SDS011;10386;54.314;10.022;2023-03-23T08:21:48;6.60;;;3.43;;
20454;SDS011;10386;54.314;10.022;2023-03-23T08:24:14;6.93;;;3.20;;
20454;SDS011;10386;54.314;10.022;2023-03-23T08:26:44;6.37;;;2.93;;
20454;SDS011;10386;54.314;10.022;2023-03-23T08:29:10;8.90;;;3.13;;
20454;SDS011;10386;54.314;10.022;2023-03-23T08:31:35;7.77;;;2.60;;
20454;SDS011;10386;54.314;10.022;2023-03-23T08:34:02;5.53;;;2.53;;
20454;SDS011;10386;54.314;10.022;2023-03-23T08:36:30;10.47;;;2.90;;
20454;SDS011;10386;54.314;10.022;2023-03-23T08:38:57;8.13;;;2.77;;
20454;SDS011;10386;54.314;10.022;2023-03-23T08:41:23;7.60;;;2.47;;
20454;SDS011;10386;54.314;10.022;2023-03-23T08:43:49;9.60;;;2.50;;
20454;SDS011;10386;54.314;10.022;2023-03-23T08:46:15;8.53;;;2.53;;
20454;SDS011;10386;54.314;10.022;2023-03-23T08:48:41;7.77;;;3.00;;
20454;SDS011;10386;54.314;10.022;2023-03-23T08:51:09;7.80;;;2.30;;
20454;SDS011;10386;54.314;10.022;2023-03-23T08:53:35;10.20;;;2.70;;
20454;SDS011;10386;54.314;10.022;2023-03-23T08:56:03;9.43;;;2.13;;
20454;SDS011;10386;54.314;10.022;2023-03-23T08:58:33;6.37;;;2.50;;
20454;SDS011;10386;54.314;10.022;2023-03-23T09:01:00;10.17;;;2.20;;
20454;SDS011;10386;54.314;10.022;2023-03-23T09:03:26;9.10;;;2.90;;
20454;SDS011;10386;54.314;10.022;2023-03-23T09:05:53;10.80;;;2.77;;
20454;SDS011;10386;54.314;10.022;2023-03-23T09:08:19;9.77;;;2.77;;
20454;SDS011;10386;54.314;10.022;2023-03-23T09:10:45;10.53;;;2.33;;
20454;SDS011;10386;54.314;10.022;2023-03-23T09:13:10;8.23;;;2.83;;
20454;SDS011;10386;54.314;10.022;2023-03-23T09:15:36;11.23;;;3.27;;
20454;SDS011;10386;54.314;10.022;2023-03-23T09:18:02;7.67;;;2.30;;
20454;SDS011;10386;54.314;10.022;2023-03-23T09:20:28;11.27;;;2.37;;
20454;SDS011;10386;54.314;10.022;2023-03-23T09:22:55;8.10;;;2.43;;
20454;SDS011;10386;54.314;10.022;2023-03-23T09:25:23;7.97;;;2.63;;
20454;SDS011;10386;54.314;10.022;2023-03-23T09:27:52;9.77;;;2.20;;
20454;SDS011;10386;54.314;10.022;2023-03-23T09:30:26;7.73;;;2.23;;
20454;SDS011;10386;54.314;10.022;2023-03-23T09:32:56;6.23;;;2.30;;
20454;SDS011;10386;54.314;10.022;2023-03-23T09:35:23;13.13;;;2.97;;
20454;SDS011;10386;54.314;10.022;2023-03-23T09:37:50;9.57;;;2.87;;
20454;SDS011;10386;54.314;10.022;2023-03-23T09:40:18;11.30;;;2.40;;
20454;SDS011;10386;54.314;10.022;2023-03-23T09:45:25;13.37;;;2.83;;
20454;SDS011;10386;54.314;10.022;2023-03-23T09:50:36;8.80;;;2.60;;
20454;SDS011;10386;54.314;10.022;2023-03-23T09:53:16;10.93;;;2.87;;
20454;SDS011;10386;54.314;10.022;2023-03-23T09:55:46;10.40;;;2.77;;
20454;SDS011;10386;54.314;10.022;2023-03-23T10:01:55;14.90;;;3.50;;
20454;SDS011;10386;54.314;10.022;2023-03-23T10:03:58;9.20;;;2.50;;
20454;SDS011;10386;54.314;10.022;2023-03-23T10:06:28;12.07;;;2.80;;
20454;SDS011;10386;54.314;10.022;2023-03-23T10:08:55;10.93;;;2.40;;
20454;SDS011;10386;54.314;10.022;2023-03-23T10:11:46;8.83;;;2.90;;
20454;SDS011;10386;54.314;10.022;2023-03-23T10:17:15;11.53;;;2.73;;
20454;SDS011;10386;54.314;10.022;2023-03-23T10:19:48;12.67;;;2.27;;
20454;SDS011;10386;54.314;10.022;2023-03-23T10:22:18;13.47;;;2.87;;
20454;SDS011;10386;54.314;10.022;2023-03-23T10:25:14;14.33;;;2.93;;
20454;SDS011;10386;54.314;10.022;2023-03-23T10:27:43;9.43;;;2.70;;
20454;SDS011;10386;54.314;10.022;2023-03-23T10:35:35;14.60;;;2.53;;
20454;SDS011;10386;54.314;10.022;2023-03-23T10:38:16;13.37;;;2.63;;
20454;SDS011;10386;54.314;10.022;2023-03-23T10:40:54;14.73;;;2.67;;
20454;SDS011;10386;54.314;10.022;2023-03-23T10:43:28;9.87;;;2.40;;
20454;SDS011;10386;54.314;10.022;2023-03-23T10:45:56;9.97;;;2.63;;
20454;SDS011;10386;54.314;10.022;2023-03-23T10:48:30;10.40;;;2.10;;
20454;SDS011;10386;54.314;10.022;2023-03-23T10:51:03;12.70;;;3.10;;
20454;SDS011;10386;54.314;10.022;2023-03-23T10:56:02;7.53;;;2.03;;
20454;SDS011;10386;54.314;10.022;2023-03-23T10:58:31;9.57;;;2.87;;
20454;SDS011;10386;54.314;10.022;2023-03-23T11:00:59;13.00;;;2.43;;
20454;SDS011;10386;54.314;10.022;2023-03-23T11:03:37;12.17;;;2.53;;
20454;SDS011;10386;54.314;10.022;2023-03-23T11:06:07;12.23;;;2.60;;
20454;SDS011;10386;54.314;10.022;2023-03-23T11:08:35;13.33;;;2.57;;
20454;SDS011;10386;54.314;10.022;2023-03-23T11:11:16;13.30;;;2.87;;
20454;SDS011;10386;54.314;10.022;2023-03-23T11:13:45;10.13;;;2.93;;
20454;SDS011;10386;54.314;10.022;2023-03-23T11:16:22;11.30;;;2.97;;
20454;SDS011;10386;54.314;10.022;2023-03-23T11:19:12;14.90;;;2.57;;
20454;SDS011;10386;54.314;10.022;2023-03-23T11:21:40;14.20;;;2.47;;
20454;SDS011;10386;54.314;10.022;2023-03-23T11:24:07;10.87;;;2.60;;
20454;SDS011;10386;54.314;10.022;2023-03-23T11:26:34;11.63;;;2.63;;
20454;SDS011;10386;54.314;10.022;2023-03-23T11:31:41;12.57;;;2.60;;
20454;SDS011;10386;54.314;10.022;2023-03-23T11:34:14;12.60;;;2.67;;
20454;SDS011;10386;54.314;10.022;2023-03-23T11:42:24;15.13;;;2.63;;
20454;SDS011;10386;54.314;10.022;2023-03-23T11:44:53;12.93;;;2.57;;
20454;SDS011;10386;54.314;10.022;2023-03-23T11:47:36;9.07;;;2.50;;
20454;SDS011;10386;54.314;10.022;2023-03-23T11:55:50;9.50;;;2.87;;
20454;SDS011;10386;54.314;10.022;2023-03-23T11:58:20;12.53;;;2.80;;
20454;SDS011;10386;54.314;10.022;2023-03-23T12:01:09;14.97;;;2.93;;
20454;SDS011;10386;54.314;10.022;2023-03-23T12:09:06;18.77;;;3.30;;
20454;SDS011;10386;54.314;10.022;2023-03-23T12:23:06;19.90;;;3.70;;
20454;SDS011;10386;54.314;10.022;2023-03-23T12:26:17;24.60;;;3.57;;
20454;SDS011;10386;54.314;10.022;2023-03-23T12:39:51;16.90;;;3.03;;
20454;SDS011;10386;54.314;10.022;2023-03-23T12:44:53;19.83;;;3.23;;
20454;SDS011;10386;54.314;10.022;2023-03-23T12:47:39;18.83;;;3.57;;
20454;SDS011;10386;54.314;10.022;2023-03-23T12:53:03;12.63;;;3.40;;
20454;SDS011;10386;54.314;10.022;2023-03-23T12:56:21;16.10;;;3.00;;
20454;SDS011;10386;54.314;10.022;2023-03-23T12:58:26;22.37;;;4.00;;
20454;SDS011;10386;54.314;10.022;2023-03-23T13:00:56;18.83;;;3.93;;
20454;SDS011;10386;54.314;10.022;2023-03-23T13:06:44;14.13;;;3.37;;
20454;SDS011;10386;54.314;10.022;2023-03-23T13:08:49;19.20;;;3.50;;
20454;SDS011;10386;54.314;10.022;2023-03-23T13:11:30;24.20;;;3.60;;
20454;SDS011;10386;54.314;10.022;2023-03-23T13:22:26;17.07;;;4.20;;
20454;SDS011;10386;54.314;10.022;2023-03-23T13:25:02;17.07;;;3.87;;
20454;SDS011;10386;54.314;10.022;2023-03-23T13:27:34;30.10;;;4.57;;
20454;SDS011;10386;54.314;10.022;2023-03-23T13:30:01;21.67;;;3.97;;
20454;SDS011;10386;54.314;10.022;2023-03-23T13:32:34;23.50;;;4.10;;
20454;SDS011;10386;54.314;10.022;2023-03-23T13:35:04;24.20;;;4.27;;
20454;SDS011;10386;54.314;10.022;2023-03-23T13:37:44;27.97;;;4.00;;
20454;SDS011;10386;54.314;10.022;2023-03-23T13:43:01;20.97;;;3.50;;
20454;SDS011;10386;54.314;10.022;2023-03-23T13:50:44;22.83;;;4.57;;
20454;SDS011;10386;54.314;10.022;2023-03-23T13:53:20;15.50;;;3.37;;
20454;SDS011;10386;54.314;10.022;2023-03-23T13:55:50;19.80;;;4.53;;
20454;SDS011;10386;54.314;10.022;2023-03-23T13:58:26;22.77;;;4.20;;
20454;SDS011;10386;54.314;10.022;2023-03-23T14:03:36;27.30;;;4.00;;
20454;SDS011;10386;54.314;10.022;2023-03-23T14:06:11;24.20;;;4.70;;
20454;SDS011;10386;54.314;10.022;2023-03-23T14:08:43;21.43;;;4.00;;
20454;SDS011;10386;54.314;10.022;2023-03-23T14:14:01;20.87;;;4.23;;
20454;SDS011;10386;54.314;10.022;2023-03-23T14:16:38;22.83;;;3.77;;
20454;SDS011;10386;54.314;10.022;2023-03-23T14:19:16;22.33;;;4.37;;
20454;SDS011;10386;54.314;10.022;2023-03-23T14:21:48;23.37;;;4.10;;
20454;SDS011;10386;54.314;10.022;2023-03-23T14:24:17;22.07;;;4.57;;
20454;SDS011;10386;54.314;10.022;2023-03-23T14:26:49;20.80;;;4.50;;
20454;SDS011;10386;54.314;10.022;2023-03-23T14:29:17;24.97;;;4.60;;
20454;SDS011;10386;54.314;10.022;2023-03-23T14:31:45;23.33;;;4.87;;
20454;SDS011;10386;54.314;10.022;2023-03-23T14:34:21;23.67;;;5.00;;
20454;SDS011;10386;54.314;10.022;2023-03-23T14:36:51;22.57;;;4.20;;
20454;SDS011;10386;54.314;10.022;2023-03-23T14:39:26;25.17;;;3.97;;
20454;SDS011;10386;54.314;10.022;2023-03-23T14:41:55;25.37;;;4.37;;
20454;SDS011;10386;54.314;10.022;2023-03-23T14:44:29;21.83;;;4.30;;
20454;SDS011;10386;54.314;10.022;2023-03-23T14:46:58;22.43;;;4.10;;
20454;SDS011;10386;54.314;10.022;2023-03-23T14:49:34;24.53;;;4.30;;
20454;SDS011;10386;54.314;10.022;2023-03-23T14:52:11;24.60;;;4.27;;
20454;SDS011;10386;54.314;10.022;2023-03-23T14:54:39;25.87;;;4.83;;
20454;SDS011;10386;54.314;10.022;2023-03-23T14:57:11;28.50;;;4.67;;
20454;SDS011;10386;54.314;10.022;2023-03-23T14:59:44;21.13;;;4.33;;
20454;SDS011;10386;54.314;10.022;2023-03-23T15:04:52;18.70;;;3.60;;
20454;SDS011;10386;54.314;10.022;2023-03-23T15:07:23;22.23;;;4.10;;
20454;SDS011;10386;54.314;10.022;2023-03-23T15:09:55;20.73;;;4.70;;
20454;SDS011;10386;54.314;10.022;2023-03-23T15:12:23;20.70;;;4.30;;
20454;SDS011;10386;54.314;10.022;2023-03-23T15:14:55;23.27;;;4.00;;
20454;SDS011;10386;54.314;10.022;2023-03-23T15:17:24;21.10;;;4.30;;
20454;SDS011;10386;54.314;10.022;2023-03-23T15:19:52;24.17;;;4.47;;
20454;SDS011;10386;54.314;10.022;2023-03-23T15:22:28;17.90;;;3.30;;
20454;SDS011;10386;54.314;10.022;2023-03-23T15:25:04;18.63;;;3.60;;
20454;SDS011;10386;54.314;10.022;2023-03-23T15:27:41;28.37;;;4.47;;
20454;SDS011;10386;54.314;10.022;2023-03-23T15:30:14;15.30;;;3.33;;
20454;SDS011;10386;54.314;10.022;2023-03-23T15:32:41;20.60;;;3.57;;
20454;SDS011;10386;54.314;10.022;2023-03-23T15:35:21;18.63;;;3.23;;
20454;SDS011;10386;54.314;10.022;2023-03-23T15:37:58;23.97;;;3.77;;
20454;SDS011;10386;54.314;10.022;2023-03-23T15:40:26;20.53;;;4.43;;
20454;SDS011;10386;54.314;10.022;2023-03-23T15:43:17;15.20;;;3.80;;
20454;SDS011;10386;54.314;10.022;2023-03-23T15:48:45;25.80;;;4.13;;
20454;SDS011;10386;54.314;10.022;2023-03-23T15:51:13;24.90;;;4.07;;
20454;SDS011;10386;54.314;10.022;2023-03-23T15:53:40;20.30;;;4.00;;
20454;SDS011;10386;54.314;10.022;2023-03-23T15:56:07;16.60;;;3.93;;
20454;SDS011;10386;54.314;10.022;2023-03-23T15:58:36;20.23;;;4.07;;
20454;SDS011;10386;54.314;10.022;2023-03-23T16:01:28;25.27;;;4.73;;
20454;SDS011;10386;54.314;10.022;2023-03-23T16:06:33;16.53;;;3.83;;
20454;SDS011;10386;54.314;10.022;2023-03-23T16:09:01;22.90;;;4.37;;
20454;SDS011;10386;54.314;10.022;2023-03-23T16:11:30;22.17;;;3.90;;
20454;SDS011;10386;54.314;10.022;2023-03-23T16:13:59;22.17;;;3.67;;
20454;SDS011;10386;54.314;10.022;2023-03-23T16:16:28;19.63;;;4.40;;
20454;SDS011;10386;54.314;10.022;2023-03-23T16:18:59;22.50;;;4.27;;
20454;SDS011;10386;54.314;10.022;2023-03-23T16:21:27;18.57;;;3.77;;
20454;SDS011;10386;54.314;10.022;2023-03-23T16:23:54;23.43;;;4.20;;
20454;SDS011;10386;54.314;10.022;2023-03-23T16:26:22;15.30;;;3.50;;
20454;SDS011;10386;54.314;10.022;2023-03-23T16:28:55;16.07;;;3.60;;
20454;SDS011;10386;54.314;10.022;2023-03-23T16:31:38;18.03;;;3.83;;
20454;SDS011;10386;54.314;10.022;2023-03-23T16:34:07;28.60;;;4.90;;
20454;SDS011;10386;54.314;10.022;2023-03-23T16:36:36;27.83;;;4.93;;
20454;SDS011;10386;54.314;10.022;2023-03-23T16:39:09;18.73;;;4.40;;
20454;SDS011;10386;54.314;10.022;2023-03-23T16:41:37;23.47;;;4.03;;
20454;SDS011;10386;54.314;10.022;2023-03-23T16:44:04;33.60;;;4.33;;
20454;SDS011;10386;54.314;10.022;2023-03-23T16:46:32;23.13;;;4.00;;